Terminal Aerodrome Forecast
Issued by NWS

Home | Current Version | Previous Version | Text Only | Print | Product List | Glossary On
Versions: 1 2 3 4 5 6 7 8 9 10 11 12 13 14 15 16 17
000
FTUS46 KMTR 031129
TAFOAK
TAF
KOAK 031129Z 0312/0418 26011KT P6SM BKN010
      TEMPO 0313/0317 SCT011
     FM031700 25011KT P6SM SKC
     FM032100 27015KT P6SM SKC
     FM040800 25010KT P6SM BKN015=

USA.gov is the U.S. government's official web portal to all federal, state and local government web resources and services.